Terminal Aerodrome Forecast
Issued by NWS Boston, MA

Home | Current Version | Previous Version | Text Only | Print | Product List | Glossary On
Versions: 1 2 3 4 5 6 7 8 9 10 11 12 13 14 15 16 17 18 19 20 21 22 23 24 25 26 27 28 29 30 31 32 33 34 35 36 37 38 39 40
000
FTUS41 KBOX 200312 AAA
TAFBDL
TAF AMD
KBDL 200312Z 2003/2106 18005KT P6SM FEW250
     FM200800 00000KT P6SM FEW250
     FM201000 00000KT 6SM BR FEW250
     FM210000 18007KT P6SM SCT250
     FM210300 VRB03KT P6SM SCT250=

USA.gov is the U.S. government's official web portal to all federal, state and local government web resources and services.